createdAt,value
2023-04-21T00:00:54.299Z,98633.00
2023-04-21T00:03:22.164Z,98635.00
2023-04-21T00:05:50.277Z,98641.00
2023-04-21T00:08:17.593Z,98633.00
2023-04-21T00:10:44.674Z,98633.00
2023-04-21T00:13:11.655Z,98644.00
2023-04-21T00:15:38.661Z,98647.00
2023-04-21T00:18:05.968Z,98642.00
2023-04-21T00:20:33.163Z,98622.00
2023-04-21T00:23:00.376Z,98630.00
2023-04-21T00:25:27.477Z,98638.00
2023-04-21T00:27:54.390Z,98637.00
2023-04-21T00:30:21.565Z,98634.00
2023-04-21T00:32:48.535Z,98638.00
2023-04-21T00:35:15.467Z,98634.00
2023-04-21T00:37:42.394Z,98633.00
2023-04-21T00:40:10.169Z,98630.00
2023-04-21T00:42:37.044Z,98621.00
2023-04-21T00:45:07.611Z,98633.00
2023-04-21T00:47:34.668Z,98636.00
2023-04-21T00:50:02.320Z,98641.00
2023-04-21T00:52:29.378Z,98635.00
2023-04-21T00:54:56.982Z,98637.00
2023-04-21T00:57:23.994Z,98616.00
2023-04-21T00:59:51.167Z,98625.00
2023-04-21T01:02:18.184Z,98623.00
2023-04-21T01:04:45.394Z,98633.00
2023-04-21T01:07:12.382Z,98626.00
2023-04-21T01:09:39.506Z,98632.00
2023-04-21T01:12:11.468Z,98641.00
2023-04-21T01:14:40.336Z,98636.00
2023-04-21T01:17:07.867Z,98630.00
2023-04-21T01:19:42.439Z,98638.00
2023-04-21T01:22:10.574Z,98643.00
2023-04-21T01:24:44.678Z,98651.00
2023-04-21T01:27:13.295Z,98644.00
2023-04-21T01:29:41.801Z,98628.00
2023-04-21T01:32:11.921Z,98629.00
2023-04-21T01:34:42.152Z,98647.00
2023-04-21T01:37:10.398Z,98628.00
2023-04-21T01:39:41.882Z,98651.00
2023-04-21T01:42:09.016Z,98658.00
2023-04-21T01:44:36.125Z,98654.00
2023-04-21T01:47:03.194Z,98651.00
2023-04-21T01:49:30.277Z,98656.00
2023-04-21T01:51:57.366Z,98654.00
2023-04-21T01:54:24.366Z,98651.00
2023-04-21T01:56:51.475Z,98660.00
2023-04-21T01:59:18.639Z,98649.00
2023-04-21T02:01:45.849Z,98655.00
2023-04-21T02:04:12.917Z,98656.00
2023-04-21T02:06:39.967Z,98654.00
2023-04-21T02:09:06.931Z,98639.00
2023-04-21T02:11:33.881Z,98637.00
2023-04-21T02:14:00.815Z,98639.00
2023-04-21T02:16:27.823Z,98645.00
2023-04-21T02:18:55.859Z,98647.00
2023-04-21T02:21:23.719Z,98646.00
2023-04-21T02:23:51.232Z,98650.00
2023-04-21T02:26:18.497Z,98652.00
2023-04-21T02:28:45.439Z,98656.00
2023-04-21T02:31:12.476Z,98648.00
2023-04-21T02:33:39.415Z,98665.00
2023-04-21T02:36:06.720Z,98641.00
2023-04-21T02:38:33.630Z,98656.00
2023-04-21T02:41:00.526Z,98662.00
2023-04-21T02:43:27.424Z,98650.00
2023-04-21T02:45:54.414Z,98663.00
2023-04-21T02:48:21.371Z,98657.00
2023-04-21T02:50:49.372Z,98656.00
2023-04-21T02:53:16.432Z,98673.00
2023-04-21T02:55:43.574Z,98656.00
2023-04-21T02:58:10.604Z,98667.00
2023-04-21T03:00:37.541Z,98661.00
2023-04-21T03:03:04.570Z,98659.00
2023-04-21T03:05:31.619Z,98650.00
2023-04-21T03:07:58.600Z,98658.00
2023-04-21T03:10:25.578Z,98654.00
2023-04-21T03:12:52.510Z,98652.00
2023-04-21T03:15:19.702Z,98658.00
2023-04-21T03:17:46.749Z,98665.00
2023-04-21T03:20:13.781Z,98664.00
2023-04-21T03:22:40.698Z,98656.00
2023-04-21T03:25:07.838Z,98673.00
2023-04-21T03:27:35.145Z,98669.00
2023-04-21T03:30:01.980Z,98681.00
2023-04-21T03:32:29.022Z,98683.00
2023-04-21T03:34:55.901Z,98689.00
2023-04-21T03:37:22.855Z,98686.00
2023-04-21T03:39:49.845Z,98697.00
2023-04-21T03:42:16.784Z,98696.00
2023-04-21T03:44:43.718Z,98700.00
2023-04-21T03:47:10.593Z,98700.00
2023-04-21T03:49:37.501Z,98689.00
2023-04-21T03:52:04.754Z,98701.00
2023-04-21T03:54:31.665Z,98691.00
2023-04-21T03:56:58.621Z,98696.00
2023-04-21T03:59:25.632Z,98688.00
2023-04-21T04:01:52.591Z,98697.00
2023-04-21T04:04:19.805Z,98704.00
2023-04-21T04:06:46.953Z,98709.00
2023-04-21T04:09:13.850Z,98713.00
2023-04-21T04:11:40.776Z,98708.00
2023-04-21T04:14:07.729Z,98694.00
2023-04-21T04:16:35.513Z,98706.00
2023-04-21T04:19:02.536Z,98708.00
2023-04-21T04:21:29.812Z,98720.00
2023-04-21T04:23:56.674Z,98708.00
2023-04-21T04:26:23.509Z,98714.00
2023-04-21T04:28:50.794Z,98711.00
2023-04-21T04:31:18.029Z,98707.00
2023-04-21T04:33:45.050Z,98705.00
2023-04-21T04:36:12.017Z,98722.00
2023-04-21T04:38:38.940Z,98723.00
2023-04-21T04:41:05.956Z,98726.00
2023-04-21T04:43:32.890Z,98725.00
2023-04-21T04:46:00.212Z,98711.00
2023-04-21T04:48:27.088Z,98729.00
2023-04-21T04:50:54.022Z,98717.00
2023-04-21T04:53:21.063Z,98733.00
2023-04-21T04:55:47.986Z,98722.00
2023-04-21T04:58:14.849Z,98732.00
2023-04-21T05:00:41.730Z,98713.00
2023-04-21T05:03:08.837Z,98738.00
2023-04-21T05:05:35.722Z,98744.00
2023-04-21T05:08:02.653Z,98742.00
2023-04-21T05:10:29.722Z,98740.00
2023-04-21T05:12:56.669Z,98756.00
2023-04-21T05:15:23.579Z,98759.00
2023-04-21T05:17:50.524Z,98770.00
2023-04-21T05:20:17.475Z,98767.00
2023-04-21T05:22:44.359Z,98777.00
2023-04-21T05:25:11.619Z,98769.00
2023-04-21T05:27:38.504Z,98783.00
2023-04-21T05:30:06.005Z,98793.00
2023-04-21T05:32:33.096Z,98782.00
2023-04-21T05:35:00.164Z,98786.00
2023-04-21T05:37:27.508Z,98774.00
2023-04-21T05:39:54.441Z,98791.00
2023-04-21T05:42:21.301Z,98792.00
2023-04-21T05:44:48.149Z,98796.00
2023-04-21T05:47:15.019Z,98794.00
2023-04-21T05:49:41.861Z,98804.00
2023-04-21T05:52:09.840Z,98793.00
2023-04-21T05:54:36.711Z,98801.00
2023-04-21T05:57:03.652Z,98805.00
2023-04-21T05:59:30.559Z,98801.00
2023-04-21T06:01:57.449Z,98798.00
2023-04-21T06:04:24.720Z,98817.00
2023-04-21T06:06:51.992Z,98817.00
2023-04-21T06:09:18.894Z,98825.00
2023-04-21T06:11:45.855Z,98823.00
2023-04-21T06:14:12.706Z,98822.00
2023-04-21T06:16:39.776Z,98835.00
2023-04-21T06:19:06.722Z,98842.00
2023-04-21T06:21:33.602Z,98824.00
2023-04-21T06:24:00.559Z,98829.00
2023-04-21T06:26:27.455Z,98846.00
2023-04-21T06:28:54.358Z,98842.00
2023-04-21T06:31:21.285Z,98846.00
2023-04-21T06:33:48.185Z,98839.00
2023-04-21T06:36:16.191Z,98857.00
2023-04-21T06:38:44.837Z,98836.00
2023-04-21T06:41:11.824Z,98848.00
2023-04-21T06:43:38.808Z,98852.00
2023-04-21T06:46:05.810Z,98847.00
2023-04-21T06:48:32.798Z,98858.00
2023-04-21T06:50:59.705Z,98850.00
2023-04-21T06:53:26.720Z,98845.00
2023-04-21T06:55:53.732Z,98851.00
2023-04-21T06:58:21.381Z,98851.00
2023-04-21T07:00:48.507Z,98860.00
2023-04-21T07:03:15.620Z,98855.00
2023-04-21T07:05:42.666Z,98858.00
2023-04-21T07:08:09.609Z,98866.00
2023-04-21T07:10:36.503Z,98858.00
2023-04-21T07:13:03.432Z,98861.00
2023-04-21T07:15:30.374Z,98848.00
2023-04-21T07:17:57.483Z,98856.00
2023-04-21T07:20:24.587Z,98863.00
2023-04-21T07:22:51.538Z,98861.00
2023-04-21T07:25:18.760Z,98852.00
2023-04-21T07:27:45.630Z,98845.00
2023-04-21T07:30:13.069Z,98861.00
2023-04-21T07:32:40.022Z,98858.00
2023-04-21T07:35:07.787Z,98862.00
2023-04-21T07:37:34.853Z,98853.00
2023-04-21T07:40:01.924Z,98871.00
2023-04-21T07:42:28.899Z,98867.00
2023-04-21T07:44:55.838Z,98879.00
2023-04-21T07:47:22.969Z,98855.00
2023-04-21T07:49:49.884Z,98864.00
2023-04-21T07:52:16.777Z,98860.00
2023-04-21T07:54:43.652Z,98856.00
2023-04-21T07:57:10.654Z,98873.00
2023-04-21T07:59:37.562Z,98868.00
2023-04-21T08:02:04.634Z,98873.00
2023-04-21T08:04:31.829Z,98871.00
2023-04-21T08:06:59.217Z,98881.00
2023-04-21T08:09:26.929Z,98877.00
2023-04-21T08:11:53.899Z,98880.00
2023-04-21T08:14:21.492Z,98894.00
2023-04-21T08:16:48.650Z,98904.00
2023-04-21T08:19:15.720Z,98891.00
2023-04-21T08:21:42.662Z,98899.00
2023-04-21T08:24:09.575Z,98904.00
2023-04-21T08:26:36.495Z,98907.00
2023-04-21T08:29:04.526Z,98908.00
2023-04-21T08:31:31.853Z,98904.00
2023-04-21T08:34:02.472Z,98889.00
2023-04-21T08:36:30.402Z,98897.00
2023-04-21T08:38:58.101Z,98893.00
2023-04-21T08:41:25.695Z,98897.00
2023-04-21T08:43:52.563Z,98885.00
2023-04-21T08:46:19.690Z,98892.00
2023-04-21T08:48:46.948Z,98893.00
2023-04-21T08:51:21.159Z,98894.00
2023-04-21T08:53:48.057Z,98899.00
2023-04-21T08:56:16.064Z,98906.00
2023-04-21T08:58:42.949Z,98908.00
2023-04-21T09:01:09.884Z,98896.00
2023-04-21T09:03:37.009Z,98919.00
2023-04-21T09:06:09.768Z,98914.00
2023-04-21T09:08:43.605Z,98910.00
2023-04-21T09:11:14.209Z,98920.00
2023-04-21T09:13:42.377Z,98929.00
2023-04-21T09:16:17.678Z,98927.00
2023-04-21T09:18:44.743Z,98920.00
2023-04-21T09:21:16.916Z,98935.00
2023-04-21T09:23:51.790Z,98924.00
2023-04-21T09:26:20.585Z,98938.00
2023-04-21T09:28:48.374Z,98931.00
2023-04-21T09:31:23.319Z,98930.00
2023-04-21T09:33:59.277Z,98925.00
2023-04-21T09:36:30.157Z,98932.00
2023-04-21T09:39:24.440Z,98928.00
2023-04-21T09:41:46.560Z,98927.00
2023-04-21T09:44:13.596Z,98930.00
2023-04-21T09:46:40.475Z,98912.00
2023-04-21T09:49:07.400Z,98911.00
2023-04-21T09:54:27.762Z,98931.00
2023-04-21T09:57:00.709Z,98933.00
2023-04-21T09:59:34.922Z,98929.00
2023-04-21T10:02:01.960Z,98931.00
2023-04-21T10:04:30.055Z,98939.00
2023-04-21T10:06:57.523Z,98940.00
2023-04-21T10:09:25.064Z,98944.00
2023-04-21T10:11:52.831Z,98949.00
2023-04-21T10:14:20.119Z,98957.00
2023-04-21T10:16:57.399Z,98952.00
2023-04-21T10:19:26.029Z,98955.00
2023-04-21T10:21:56.018Z,98959.00
2023-04-21T10:24:23.027Z,98962.00
2023-04-21T10:26:53.279Z,98958.00
2023-04-21T10:29:48.018Z,98961.00
2023-04-21T10:32:41.365Z,98968.00
2023-04-21T10:35:16.802Z,98973.00
2023-04-21T10:37:43.815Z,98966.00
2023-04-21T10:40:44.097Z,98966.00
2023-04-21T10:43:43.936Z,98976.00
2023-04-21T10:46:37.363Z,98976.00
2023-04-21T10:49:20.618Z,98985.00
2023-04-21T10:51:59.690Z,98984.00
2023-04-21T10:54:27.298Z,98973.00
2023-04-21T10:56:58.524Z,98961.00
2023-04-21T10:59:26.848Z,98971.00
2023-04-21T11:01:53.816Z,98971.00
2023-04-21T11:04:22.421Z,98964.00
2023-04-21T11:07:14.279Z,98974.00
2023-04-21T11:09:41.738Z,98968.00
2023-04-21T11:12:13.182Z,98975.00
2023-04-21T11:14:42.123Z,98966.00
2023-04-21T11:17:17.280Z,98968.00
2023-04-21T11:19:48.290Z,98959.00
2023-04-21T11:22:17.730Z,98959.00
2023-04-21T11:24:53.845Z,98957.00
2023-04-21T11:27:20.819Z,98943.00
2023-04-21T11:29:47.979Z,98950.00
2023-04-21T11:32:15.242Z,98964.00
2023-04-21T11:34:42.380Z,98966.00
2023-04-21T11:37:10.451Z,98960.00
2023-04-21T11:39:40.596Z,98963.00
2023-04-21T11:42:07.535Z,98959.00
2023-04-21T11:44:40.999Z,98955.00
2023-04-21T11:47:18.809Z,98969.00
2023-04-21T11:49:56.955Z,98967.00
2023-04-21T11:52:31.314Z,98968.00
2023-04-21T11:55:04.263Z,98960.00
2023-04-21T11:57:32.309Z,98965.00
2023-04-21T12:00:00.336Z,98970.00
2023-04-21T12:02:29.431Z,98970.00
2023-04-21T12:05:09.241Z,98978.00
2023-04-21T12:07:42.623Z,98978.00
2023-04-21T12:10:14.443Z,98978.00
2023-04-21T12:12:42.229Z,98966.00
2023-04-21T12:15:11.066Z,98973.00
2023-04-21T12:17:44.642Z,98968.00
2023-04-21T12:20:12.562Z,98974.00
2023-04-21T12:22:39.513Z,98973.00
2023-04-21T12:25:06.880Z,98972.00
2023-04-21T12:27:33.832Z,98968.00
2023-04-21T12:30:00.784Z,98987.00
2023-04-21T12:32:27.668Z,98986.00
2023-04-21T12:34:54.565Z,98976.00
2023-04-21T12:37:21.537Z,98963.00
2023-04-21T12:39:48.395Z,98973.00
2023-04-21T12:42:15.314Z,98975.00
2023-04-21T12:44:42.194Z,98980.00
2023-04-21T12:47:09.039Z,98981.00
2023-04-21T12:49:35.918Z,98982.00
2023-04-21T12:52:02.793Z,98978.00
2023-04-21T12:54:29.699Z,98970.00
2023-04-21T12:56:56.625Z,98970.00
2023-04-21T12:59:23.551Z,98977.00
2023-04-21T13:01:50.772Z,98968.00
2023-04-21T13:04:18.146Z,98969.00
2023-04-21T13:06:45.334Z,98968.00
2023-04-21T13:09:12.212Z,98962.00
2023-04-21T13:11:39.068Z,98964.00
2023-04-21T13:14:06.549Z,98956.00
2023-04-21T13:16:33.492Z,98941.00
2023-04-21T13:19:00.402Z,98950.00
2023-04-21T13:21:27.286Z,98955.00
2023-04-21T13:23:54.203Z,98961.00
2023-04-21T13:26:21.170Z,98945.00
2023-04-21T13:28:48.024Z,98952.00
2023-04-21T13:31:14.999Z,98956.00
2023-04-21T13:33:41.969Z,98951.00
2023-04-21T13:36:10.006Z,98963.00
2023-04-21T13:38:38.930Z,98948.00
2023-04-21T13:41:05.912Z,98946.00
2023-04-21T13:43:32.786Z,98955.00
2023-04-21T13:45:59.736Z,98953.00
2023-04-21T13:48:26.762Z,98948.00
2023-04-21T13:50:53.677Z,98937.00
2023-04-21T13:53:21.519Z,98933.00
2023-04-21T13:55:48.638Z,98940.00
2023-04-21T13:58:15.955Z,98942.00
2023-04-21T14:00:42.924Z,98951.00
2023-04-21T14:03:10.008Z,98948.00
2023-04-21T14:05:37.184Z,98939.00
2023-04-21T14:08:04.180Z,98936.00
2023-04-21T14:10:31.061Z,98947.00
2023-04-21T14:12:57.938Z,98944.00
2023-04-21T14:15:25.806Z,98933.00
2023-04-21T14:17:53.430Z,98946.00
2023-04-21T14:20:20.520Z,98950.00
2023-04-21T14:22:47.481Z,98947.00
2023-04-21T14:25:14.430Z,98940.00
2023-04-21T14:27:41.327Z,98925.00
2023-04-21T14:30:09.058Z,98914.00
2023-04-21T14:32:36.063Z,98913.00
2023-04-21T14:35:03.042Z,98914.00
2023-04-21T14:37:29.956Z,98922.00
2023-04-21T14:39:56.847Z,98919.00
2023-04-21T14:42:23.757Z,98923.00
2023-04-21T14:44:50.621Z,98922.00
2023-04-21T14:47:17.558Z,98916.00
2023-04-21T14:49:44.550Z,98910.00
2023-04-21T14:52:11.637Z,98916.00
2023-04-21T14:54:38.517Z,98913.00
2023-04-21T14:57:17.551Z,98918.00
2023-04-21T14:59:46.312Z,98917.00
2023-04-21T15:02:13.562Z,98910.00
2023-04-21T15:04:40.788Z,98908.00
2023-04-21T15:07:07.773Z,98908.00
2023-04-21T15:09:34.892Z,98900.00
2023-04-21T15:12:02.066Z,98914.00
2023-04-21T15:14:28.994Z,98902.00
2023-04-21T15:16:55.934Z,98896.00
2023-04-21T15:19:25.401Z,98901.00
2023-04-21T15:21:52.722Z,98893.00
2023-04-21T15:24:19.759Z,98890.00
2023-04-21T15:26:46.646Z,98886.00
2023-04-21T15:29:13.607Z,98903.00
2023-04-21T15:31:40.728Z,98894.00
2023-04-21T15:34:08.012Z,98894.00
2023-04-21T15:36:34.901Z,98907.00
2023-04-21T15:39:01.832Z,98909.00
2023-04-21T15:41:28.734Z,98901.00
2023-04-21T15:43:55.656Z,98899.00
2023-04-21T15:46:22.596Z,98903.00
2023-04-21T15:48:49.553Z,98893.00
2023-04-21T15:51:16.564Z,98897.00
2023-04-21T15:53:43.445Z,98896.00
2023-04-21T15:56:10.774Z,98887.00
2023-04-21T15:58:37.779Z,98896.00
2023-04-21T16:01:04.986Z,98882.00
2023-04-21T16:03:32.118Z,98881.00
2023-04-21T16:05:59.450Z,98876.00
2023-04-21T16:08:27.023Z,98877.00
2023-04-21T16:10:54.132Z,98889.00
2023-04-21T16:13:21.001Z,98877.00
2023-04-21T16:15:47.957Z,98885.00
2023-04-21T16:18:14.942Z,98881.00
2023-04-21T16:20:41.867Z,98879.00
2023-04-21T16:23:09.119Z,98885.00
2023-04-21T16:25:36.069Z,98884.00
2023-04-21T16:28:02.990Z,98875.00
2023-04-21T16:30:29.878Z,98881.00
2023-04-21T16:32:56.809Z,98885.00
2023-04-21T16:35:23.795Z,98881.00
2023-04-21T16:37:50.921Z,98871.00
2023-04-21T16:40:17.831Z,98881.00
2023-04-21T16:42:48.612Z,98887.00
2023-04-21T16:45:15.529Z,98876.00
2023-04-21T16:47:42.868Z,98893.00
2023-04-21T16:50:10.201Z,98889.00
2023-04-21T16:52:37.267Z,98892.00
2023-04-21T16:55:04.443Z,98876.00
2023-04-21T16:57:31.413Z,98893.00
2023-04-21T16:59:58.374Z,98897.00
2023-04-21T17:02:25.423Z,98888.00
2023-04-21T17:04:52.408Z,98889.00
2023-04-21T17:07:19.339Z,98874.00
2023-04-21T17:09:46.260Z,98890.00
2023-04-21T17:12:13.183Z,98876.00
2023-04-21T17:14:41.619Z,98875.00
2023-04-21T17:17:08.639Z,98872.00
2023-04-21T17:19:35.582Z,98886.00
2023-04-21T17:22:02.518Z,98890.00
2023-04-21T17:24:35.422Z,98896.00
2023-04-21T17:27:08.454Z,98897.00
2023-04-21T17:29:35.338Z,98894.00
2023-04-21T17:32:05.474Z,98897.00
2023-04-21T17:34:33.591Z,98901.00
2023-04-21T17:37:00.561Z,98885.00
2023-04-21T17:39:27.461Z,98905.00
2023-04-21T17:41:54.393Z,98895.00
2023-04-21T17:44:21.279Z,98907.00
2023-04-21T17:46:48.214Z,98898.00
2023-04-21T17:49:15.112Z,98908.00
2023-04-21T17:51:42.007Z,98918.00
2023-04-21T17:54:08.915Z,98914.00
2023-04-21T17:56:35.839Z,98908.00
2023-04-21T17:59:02.759Z,98911.00
2023-04-21T18:01:29.781Z,98920.00
2023-04-21T18:04:00.585Z,98913.00
2023-04-21T18:06:28.117Z,98916.00
2023-04-21T18:08:55.027Z,98915.00
2023-04-21T18:11:21.949Z,98931.00
2023-04-21T18:13:48.844Z,98919.00
2023-04-21T18:16:15.811Z,98923.00
2023-04-21T18:18:42.708Z,98930.00
2023-04-21T18:21:09.659Z,98924.00
2023-04-21T18:23:36.522Z,98925.00
2023-04-21T18:26:03.587Z,98929.00
2023-04-21T18:28:30.493Z,98930.00
2023-04-21T18:30:57.461Z,98938.00
2023-04-21T18:33:24.444Z,98947.00
2023-04-21T18:35:51.444Z,98941.00
2023-04-21T18:38:18.441Z,98939.00
2023-04-21T18:40:45.385Z,98938.00
2023-04-21T18:43:12.377Z,98952.00
2023-04-21T18:45:39.411Z,98942.00
2023-04-21T18:48:06.398Z,98948.00
2023-04-21T18:50:34.212Z,98943.00
2023-04-21T18:53:02.891Z,98942.00
2023-04-21T18:55:29.800Z,98946.00
2023-04-21T18:57:56.665Z,98942.00
2023-04-21T19:00:23.530Z,98945.00
2023-04-21T19:02:50.590Z,98943.00
2023-04-21T19:05:18.026Z,98941.00
2023-04-21T19:07:44.905Z,98931.00
2023-04-21T19:10:11.857Z,98946.00
2023-04-21T19:12:38.914Z,98952.00
2023-04-21T19:15:06.633Z,98949.00
2023-04-21T19:17:33.573Z,98960.00
2023-04-21T19:20:00.494Z,98964.00
2023-04-21T19:22:27.365Z,98955.00
2023-04-21T19:24:54.394Z,98952.00
2023-04-21T19:27:21.402Z,98964.00
2023-04-21T19:29:48.905Z,98945.00
2023-04-21T19:32:15.845Z,98961.00
2023-04-21T19:34:42.772Z,98959.00
2023-04-21T19:37:09.685Z,98965.00
2023-04-21T19:39:36.530Z,98960.00
2023-04-21T19:42:03.559Z,98966.00
2023-04-21T19:44:30.613Z,98979.00
2023-04-21T19:46:57.531Z,98979.00
2023-04-21T19:49:24.469Z,98977.00
2023-04-21T19:51:51.386Z,98970.00
2023-04-21T19:54:18.312Z,98986.00
2023-04-21T19:56:45.333Z,98985.00
2023-04-21T19:59:12.455Z,98984.00
2023-04-21T20:01:39.505Z,98988.00
2023-04-21T20:04:07.162Z,98990.00
2023-04-21T20:06:34.832Z,98994.00
2023-04-21T20:09:01.824Z,98980.00
2023-04-21T20:11:29.242Z,98989.00
2023-04-21T20:13:56.349Z,98993.00
2023-04-21T20:16:23.308Z,98990.00
2023-04-21T20:18:50.251Z,98989.00
2023-04-21T20:21:17.246Z,98985.00
2023-04-21T20:23:44.317Z,98987.00
2023-04-21T20:26:11.275Z,98990.00
2023-04-21T20:28:38.237Z,98991.00
2023-04-21T20:31:05.177Z,98987.00
2023-04-21T20:33:32.135Z,98981.00
2023-04-21T20:35:59.057Z,98981.00
2023-04-21T20:38:26.082Z,98978.00
2023-04-21T20:40:53.003Z,98991.00
2023-04-21T20:43:20.295Z,98995.00
2023-04-21T20:45:47.274Z,98982.00
2023-04-21T20:48:14.239Z,98970.00
2023-04-21T20:50:42.291Z,98983.00
2023-04-21T20:53:11.003Z,98993.00
2023-04-21T20:55:38.230Z,98984.00
2023-04-21T20:58:05.163Z,98991.00
2023-04-21T21:00:32.159Z,98990.00
2023-04-21T21:02:59.287Z,98989.00
2023-04-21T21:05:27.801Z,98999.00
2023-04-21T21:07:55.704Z,98995.00
2023-04-21T21:10:22.579Z,98998.00
2023-04-21T21:12:49.512Z,98998.00
2023-04-21T21:15:16.528Z,98990.00
2023-04-21T21:17:43.517Z,98999.00
2023-04-21T21:20:11.132Z,98990.00
2023-04-21T21:22:38.069Z,99004.00
2023-04-21T21:25:05.546Z,99000.00
2023-04-21T21:27:32.487Z,98987.00
2023-04-21T21:29:59.435Z,98993.00
2023-04-21T21:32:26.407Z,98984.00
2023-04-21T21:34:53.321Z,98994.00
2023-04-21T21:37:20.223Z,98989.00
2023-04-21T21:39:47.152Z,98994.00
2023-04-21T21:42:14.049Z,98989.00
2023-04-21T21:44:41.178Z,99009.00
2023-04-21T21:47:08.132Z,98999.00
2023-04-21T21:49:35.129Z,98986.00
2023-04-21T21:52:02.153Z,98986.00
2023-04-21T21:54:29.080Z,98992.00
2023-04-21T21:56:56.054Z,98986.00
2023-04-21T21:59:23.036Z,98994.00
2023-04-21T22:01:51.199Z,98992.00
2023-04-21T22:04:18.364Z,98976.00
2023-04-21T22:06:45.362Z,98989.00
2023-04-21T22:09:12.277Z,98990.00
2023-04-21T22:11:40.418Z,98982.00
2023-04-21T22:14:21.062Z,98972.00
2023-04-21T22:16:50.355Z,98990.00
2023-04-21T22:19:17.288Z,98984.00
2023-04-21T22:21:44.383Z,98981.00
2023-04-21T22:24:11.275Z,98986.00
2023-04-21T22:26:38.218Z,98981.00
2023-04-21T22:29:05.095Z,98994.00
2023-04-21T22:31:32.037Z,98998.00
2023-04-21T22:33:58.991Z,98986.00
2023-04-21T22:36:25.915Z,98994.00
2023-04-21T22:38:52.848Z,98994.00
2023-04-21T22:41:19.828Z,98988.00
2023-04-21T22:43:47.397Z,98996.00
2023-04-21T22:46:14.340Z,98992.00
2023-04-21T22:48:41.233Z,98977.00
2023-04-21T22:51:08.176Z,98981.00
2023-04-21T22:53:35.352Z,98979.00
2023-04-21T22:56:03.218Z,98983.00
2023-04-21T22:58:30.133Z,98987.00
2023-04-21T23:00:57.064Z,98993.00
2023-04-21T23:03:24.400Z,98989.00
2023-04-21T23:05:51.507Z,98998.00
2023-04-21T23:08:18.367Z,98979.00
2023-04-21T23:10:45.255Z,98975.00
2023-04-21T23:13:12.165Z,98979.00
2023-04-21T23:15:39.134Z,98983.00
2023-04-21T23:18:06.283Z,98975.00
2023-04-21T23:20:33.203Z,98983.00
2023-04-21T23:23:00.131Z,98982.00
2023-04-21T23:25:27.050Z,98985.00
2023-04-21T23:27:53.958Z,98971.00
2023-04-21T23:30:20.837Z,98989.00
2023-04-21T23:32:47.848Z,98976.00
2023-04-21T23:35:14.828Z,98971.00
2023-04-21T23:37:41.760Z,98977.00
2023-04-21T23:40:09.261Z,99000.00
2023-04-21T23:42:36.526Z,98989.00
2023-04-21T23:45:03.869Z,98993.00
2023-04-21T23:47:31.158Z,98991.00
2023-04-21T23:49:58.471Z,98994.00
2023-04-21T23:52:25.414Z,98983.00
2023-04-21T23:54:52.368Z,98991.00
2023-04-21T23:57:19.236Z,98986.00
2023-04-21T23:59:46.116Z,98970.00
